sensor_id;sensor_type;location;lat;lon;timestamp;P1;durP1;ratioP1;P2;durP2;ratioP2
2546;SDS011;1283;47.982;7.834;2023-08-06T00:00:25;5.97;;;2.13;;
2546;SDS011;1283;47.982;7.834;2023-08-06T00:02:51;4.50;;;1.60;;
2546;SDS011;1283;47.982;7.834;2023-08-06T00:05:18;4.40;;;1.60;;
2546;SDS011;1283;47.982;7.834;2023-08-06T00:07:46;6.75;;;1.75;;
2546;SDS011;1283;47.982;7.834;2023-08-06T00:10:12;4.05;;;1.60;;
2546;SDS011;1283;47.982;7.834;2023-08-06T00:12:39;4.60;;;2.13;;
2546;SDS011;1283;47.982;7.834;2023-08-06T00:15:07;9.45;;;2.85;;
2546;SDS011;1283;47.982;7.834;2023-08-06T00:17:34;6.00;;;2.15;;
2546;SDS011;1283;47.982;7.834;2023-08-06T00:20:01;7.78;;;2.08;;
2546;SDS011;1283;47.982;7.834;2023-08-06T00:22:31;3.25;;;1.70;;
2546;SDS011;1283;47.982;7.834;2023-08-06T00:24:57;2.38;;;1.80;;
2546;SDS011;1283;47.982;7.834;2023-08-06T00:27:24;5.28;;;1.85;;
2546;SDS011;1283;47.982;7.834;2023-08-06T00:29:50;5.75;;;2.33;;
2546;SDS011;1283;47.982;7.834;2023-08-06T00:32:18;7.03;;;1.80;;
2546;SDS011;1283;47.982;7.834;2023-08-06T00:34:45;6.25;;;1.98;;
2546;SDS011;1283;47.982;7.834;2023-08-06T00:37:11;6.78;;;2.17;;
2546;SDS011;1283;47.982;7.834;2023-08-06T00:39:38;3.25;;;1.65;;
2546;SDS011;1283;47.982;7.834;2023-08-06T00:42:04;3.05;;;1.70;;
2546;SDS011;1283;47.982;7.834;2023-08-06T00:44:31;3.63;;;1.80;;
2546;SDS011;1283;47.982;7.834;2023-08-06T00:46:57;4.82;;;1.80;;
2546;SDS011;1283;47.982;7.834;2023-08-06T00:49:25;7.05;;;1.60;;
2546;SDS011;1283;47.982;7.834;2023-08-06T00:51:52;5.38;;;1.65;;
2546;SDS011;1283;47.982;7.834;2023-08-06T00:54:18;8.98;;;1.67;;
2546;SDS011;1283;47.982;7.834;2023-08-06T00:56:45;6.15;;;1.88;;
2546;SDS011;1283;47.982;7.834;2023-08-06T00:59:12;5.10;;;2.60;;
2546;SDS011;1283;47.982;7.834;2023-08-06T01:01:39;6.07;;;1.67;;
2546;SDS011;1283;47.982;7.834;2023-08-06T01:04:05;2.85;;;1.48;;
2546;SDS011;1283;47.982;7.834;2023-08-06T01:06:35;9.82;;;1.88;;
2546;SDS011;1283;47.982;7.834;2023-08-06T01:09:07;2.72;;;1.60;;
2546;SDS011;1283;47.982;7.834;2023-08-06T01:11:42;3.58;;;1.30;;
2546;SDS011;1283;47.982;7.834;2023-08-06T01:14:12;3.15;;;1.38;;
2546;SDS011;1283;47.982;7.834;2023-08-06T01:16:41;3.80;;;1.60;;
2546;SDS011;1283;47.982;7.834;2023-08-06T01:19:15;5.22;;;1.30;;
2546;SDS011;1283;47.982;7.834;2023-08-06T01:21:43;2.45;;;1.20;;
2546;SDS011;1283;47.982;7.834;2023-08-06T01:24:10;4.15;;;1.65;;
2546;SDS011;1283;47.982;7.834;2023-08-06T01:26:37;3.35;;;1.40;;
2546;SDS011;1283;47.982;7.834;2023-08-06T01:29:08;2.83;;;1.10;;
2546;SDS011;1283;47.982;7.834;2023-08-06T01:31:37;3.83;;;1.63;;
2546;SDS011;1283;47.982;7.834;2023-08-06T01:34:06;2.28;;;1.27;;
2546;SDS011;1283;47.982;7.834;2023-08-06T01:36:35;2.55;;;1.20;;
2546;SDS011;1283;47.982;7.834;2023-08-06T01:39:03;1.98;;;1.25;;
2546;SDS011;1283;47.982;7.834;2023-08-06T01:41:30;1.70;;;1.20;;
2546;SDS011;1283;47.982;7.834;2023-08-06T01:43:57;2.35;;;1.20;;
2546;SDS011;1283;47.982;7.834;2023-08-06T01:46:23;4.05;;;1.00;;
2546;SDS011;1283;47.982;7.834;2023-08-06T01:48:50;2.47;;;1.30;;
2546;SDS011;1283;47.982;7.834;2023-08-06T01:51:17;4.32;;;1.15;;
2546;SDS011;1283;47.982;7.834;2023-08-06T01:53:43;1.40;;;1.10;;
2546;SDS011;1283;47.982;7.834;2023-08-06T01:56:11;3.88;;;1.20;;
2546;SDS011;1283;47.982;7.834;2023-08-06T01:58:37;2.47;;;1.13;;
2546;SDS011;1283;47.982;7.834;2023-08-06T02:01:04;3.35;;;1.35;;
2546;SDS011;1283;47.982;7.834;2023-08-06T02:03:30;7.03;;;1.50;;
2546;SDS011;1283;47.982;7.834;2023-08-06T02:05:57;9.05;;;1.48;;
2546;SDS011;1283;47.982;7.834;2023-08-06T02:08:23;3.90;;;1.20;;
2546;SDS011;1283;47.982;7.834;2023-08-06T02:10:50;3.22;;;1.08;;
2546;SDS011;1283;47.982;7.834;2023-08-06T02:13:18;2.72;;;1.30;;
2546;SDS011;1283;47.982;7.834;2023-08-06T02:15:44;6.43;;;1.67;;
2546;SDS011;1283;47.982;7.834;2023-08-06T02:18:12;3.30;;;1.15;;
2546;SDS011;1283;47.982;7.834;2023-08-06T02:20:39;7.35;;;1.70;;
2546;SDS011;1283;47.982;7.834;2023-08-06T02:23:06;3.40;;;1.20;;
2546;SDS011;1283;47.982;7.834;2023-08-06T02:25:32;3.13;;;1.27;;
2546;SDS011;1283;47.982;7.834;2023-08-06T02:27:59;4.93;;;1.58;;
2546;SDS011;1283;47.982;7.834;2023-08-06T02:30:27;4.03;;;1.30;;
2546;SDS011;1283;47.982;7.834;2023-08-06T02:32:53;3.53;;;1.52;;
2546;SDS011;1283;47.982;7.834;2023-08-06T02:35:20;2.22;;;1.30;;
2546;SDS011;1283;47.982;7.834;2023-08-06T02:37:46;4.53;;;1.33;;
2546;SDS011;1283;47.982;7.834;2023-08-06T02:40:13;3.10;;;1.38;;
2546;SDS011;1283;47.982;7.834;2023-08-06T02:42:39;1.85;;;1.00;;
2546;SDS011;1283;47.982;7.834;2023-08-06T02:45:06;3.30;;;1.20;;
2546;SDS011;1283;47.982;7.834;2023-08-06T02:47:34;2.65;;;0.88;;
2546;SDS011;1283;47.982;7.834;2023-08-06T02:50:01;4.20;;;0.73;;
2546;SDS011;1283;47.982;7.834;2023-08-06T02:52:27;2.60;;;0.80;;
2546;SDS011;1283;47.982;7.834;2023-08-06T02:54:54;3.00;;;0.77;;
2546;SDS011;1283;47.982;7.834;2023-08-06T02:57:20;3.35;;;1.00;;
2546;SDS011;1283;47.982;7.834;2023-08-06T02:59:47;6.53;;;1.30;;
2546;SDS011;1283;47.982;7.834;2023-08-06T03:02:13;3.47;;;0.98;;
2546;SDS011;1283;47.982;7.834;2023-08-06T03:04:41;2.97;;;1.10;;
2546;SDS011;1283;47.982;7.834;2023-08-06T03:07:08;2.50;;;0.75;;
2546;SDS011;1283;47.982;7.834;2023-08-06T03:09:34;2.03;;;0.70;;
2546;SDS011;1283;47.982;7.834;2023-08-06T03:12:01;4.05;;;0.70;;
2546;SDS011;1283;47.982;7.834;2023-08-06T03:14:27;3.95;;;0.95;;
2546;SDS011;1283;47.982;7.834;2023-08-06T03:16:54;1.25;;;0.50;;
2546;SDS011;1283;47.982;7.834;2023-08-06T03:19:20;2.88;;;0.57;;
2546;SDS011;1283;47.982;7.834;2023-08-06T03:21:48;3.65;;;0.60;;
2546;SDS011;1283;47.982;7.834;2023-08-06T03:24:14;2.33;;;0.60;;
2546;SDS011;1283;47.982;7.834;2023-08-06T03:26:41;1.50;;;0.63;;
2546;SDS011;1283;47.982;7.834;2023-08-06T03:29:08;2.38;;;0.50;;
2546;SDS011;1283;47.982;7.834;2023-08-06T03:31:34;2.10;;;0.70;;
2546;SDS011;1283;47.982;7.834;2023-08-06T03:34:01;1.75;;;0.60;;
2546;SDS011;1283;47.982;7.834;2023-08-06T03:36:27;2.00;;;0.40;;
2546;SDS011;1283;47.982;7.834;2023-08-06T03:38:55;0.60;;;0.30;;
2546;SDS011;1283;47.982;7.834;2023-08-06T03:41:21;4.75;;;0.70;;
2546;SDS011;1283;47.982;7.834;2023-08-06T03:43:48;1.95;;;0.32;;
2546;SDS011;1283;47.982;7.834;2023-08-06T03:46:14;3.17;;;0.50;;
2546;SDS011;1283;47.982;7.834;2023-08-06T03:48:44;2.53;;;0.77;;
2546;SDS011;1283;47.982;7.834;2023-08-06T03:51:10;2.92;;;0.40;;
2546;SDS011;1283;47.982;7.834;2023-08-06T03:53:36;1.55;;;0.40;;
2546;SDS011;1283;47.982;7.834;2023-08-06T03:56:04;3.05;;;0.75;;
2546;SDS011;1283;47.982;7.834;2023-08-06T03:58:31;1.77;;;0.55;;
2546;SDS011;1283;47.982;7.834;2023-08-06T04:00:58;0.75;;;0.43;;
2546;SDS011;1283;47.982;7.834;2023-08-06T04:03:25;3.20;;;0.52;;
2546;SDS011;1283;47.982;7.834;2023-08-06T04:05:51;2.13;;;0.90;;
2546;SDS011;1283;47.982;7.834;2023-08-06T04:08:18;1.40;;;0.40;;
2546;SDS011;1283;47.982;7.834;2023-08-06T04:10:44;5.53;;;0.50;;
2546;SDS011;1283;47.982;7.834;2023-08-06T04:13:12;2.67;;;0.45;;
2546;SDS011;1283;47.982;7.834;2023-08-06T04:15:38;0.98;;;0.57;;
2546;SDS011;1283;47.982;7.834;2023-08-06T04:18:05;2.05;;;0.60;;
2546;SDS011;1283;47.982;7.834;2023-08-06T04:20:31;7.60;;;1.45;;
2546;SDS011;1283;47.982;7.834;2023-08-06T04:22:58;5.50;;;0.98;;
2546;SDS011;1283;47.982;7.834;2023-08-06T04:25:24;6.45;;;0.80;;
2546;SDS011;1283;47.982;7.834;2023-08-06T04:27:51;5.68;;;0.77;;
2546;SDS011;1283;47.982;7.834;2023-08-06T04:30:18;4.38;;;1.13;;
2546;SDS011;1283;47.982;7.834;2023-08-06T04:32:45;3.58;;;1.00;;
2546;SDS011;1283;47.982;7.834;2023-08-06T04:35:11;3.60;;;0.80;;
2546;SDS011;1283;47.982;7.834;2023-08-06T04:37:38;4.75;;;0.80;;
2546;SDS011;1283;47.982;7.834;2023-08-06T04:40:05;6.32;;;1.05;;
2546;SDS011;1283;47.982;7.834;2023-08-06T04:42:32;8.77;;;1.10;;
2546;SDS011;1283;47.982;7.834;2023-08-06T04:44:58;4.38;;;1.20;;
2546;SDS011;1283;47.982;7.834;2023-08-06T04:47:26;6.28;;;1.55;;
2546;SDS011;1283;47.982;7.834;2023-08-06T04:49:53;4.70;;;1.05;;
2546;SDS011;1283;47.982;7.834;2023-08-06T04:52:19;7.43;;;1.50;;
2546;SDS011;1283;47.982;7.834;2023-08-06T04:54:45;6.13;;;1.65;;
2546;SDS011;1283;47.982;7.834;2023-08-06T04:57:12;4.78;;;1.02;;
2546;SDS011;1283;47.982;7.834;2023-08-06T04:59:38;8.77;;;1.70;;
2546;SDS011;1283;47.982;7.834;2023-08-06T05:02:05;8.60;;;1.65;;
2546;SDS011;1283;47.982;7.834;2023-08-06T05:04:33;9.38;;;1.98;;
2546;SDS011;1283;47.982;7.834;2023-08-06T05:06:59;6.78;;;1.52;;
2546;SDS011;1283;47.982;7.834;2023-08-06T05:09:26;5.13;;;1.27;;
2546;SDS011;1283;47.982;7.834;2023-08-06T05:11:53;3.88;;;1.10;;
2546;SDS011;1283;47.982;7.834;2023-08-06T05:14:19;7.47;;;1.50;;
2546;SDS011;1283;47.982;7.834;2023-08-06T05:16:45;7.68;;;1.27;;
2546;SDS011;1283;47.982;7.834;2023-08-06T05:19:12;6.13;;;1.63;;
2546;SDS011;1283;47.982;7.834;2023-08-06T05:21:40;7.25;;;1.50;;
2546;SDS011;1283;47.982;7.834;2023-08-06T05:24:06;6.93;;;1.40;;
2546;SDS011;1283;47.982;7.834;2023-08-06T05:26:33;10.63;;;1.30;;
2546;SDS011;1283;47.982;7.834;2023-08-06T05:29:00;9.60;;;1.67;;
2546;SDS011;1283;47.982;7.834;2023-08-06T05:31:26;4.55;;;1.67;;
2546;SDS011;1283;47.982;7.834;2023-08-06T05:33:53;8.55;;;2.05;;
2546;SDS011;1283;47.982;7.834;2023-08-06T05:36:20;9.15;;;2.42;;
2546;SDS011;1283;47.982;7.834;2023-08-06T05:38:48;7.38;;;1.75;;
2546;SDS011;1283;47.982;7.834;2023-08-06T05:41:14;9.25;;;1.52;;
2546;SDS011;1283;47.982;7.834;2023-08-06T05:43:40;3.88;;;1.05;;
2546;SDS011;1283;47.982;7.834;2023-08-06T05:46:07;7.25;;;1.30;;
2546;SDS011;1283;47.982;7.834;2023-08-06T05:48:33;6.68;;;1.55;;
2546;SDS011;1283;47.982;7.834;2023-08-06T05:51:00;7.90;;;1.27;;
2546;SDS011;1283;47.982;7.834;2023-08-06T05:53:26;9.40;;;1.52;;
2546;SDS011;1283;47.982;7.834;2023-08-06T05:55:54;4.18;;;1.02;;
2546;SDS011;1283;47.982;7.834;2023-08-06T05:58:21;5.03;;;1.20;;
2546;SDS011;1283;47.982;7.834;2023-08-06T06:00:49;8.25;;;1.45;;
2546;SDS011;1283;47.982;7.834;2023-08-06T06:03:15;6.15;;;1.20;;
2546;SDS011;1283;47.982;7.834;2023-08-06T06:05:42;10.38;;;1.50;;
2546;SDS011;1283;47.982;7.834;2023-08-06T06:08:08;3.13;;;0.90;;
2546;SDS011;1283;47.982;7.834;2023-08-06T06:10:35;4.38;;;1.35;;
2546;SDS011;1283;47.982;7.834;2023-08-06T06:13:02;6.10;;;1.20;;
2546;SDS011;1283;47.982;7.834;2023-08-06T06:15:29;5.43;;;0.93;;
2546;SDS011;1283;47.982;7.834;2023-08-06T06:17:55;6.55;;;2.00;;
2546;SDS011;1283;47.982;7.834;2023-08-06T06:20:22;7.00;;;1.67;;
2546;SDS011;1283;47.982;7.834;2023-08-06T06:22:48;3.92;;;1.13;;
2546;SDS011;1283;47.982;7.834;2023-08-06T06:25:15;12.60;;;1.02;;
2546;SDS011;1283;47.982;7.834;2023-08-06T06:27:42;7.90;;;2.10;;
2546;SDS011;1283;47.982;7.834;2023-08-06T06:30:10;3.05;;;0.77;;
2546;SDS011;1283;47.982;7.834;2023-08-06T06:32:38;2.05;;;0.88;;
2546;SDS011;1283;47.982;7.834;2023-08-06T06:35:05;5.07;;;0.73;;
2546;SDS011;1283;47.982;7.834;2023-08-06T06:37:32;4.47;;;0.80;;
2546;SDS011;1283;47.982;7.834;2023-08-06T06:39:58;1.45;;;0.80;;
2546;SDS011;1283;47.982;7.834;2023-08-06T06:42:24;2.58;;;0.82;;
2546;SDS011;1283;47.982;7.834;2023-08-06T06:44:51;4.90;;;1.00;;
2546;SDS011;1283;47.982;7.834;2023-08-06T06:47:19;2.85;;;0.70;;
2546;SDS011;1283;47.982;7.834;2023-08-06T06:49:45;4.50;;;0.90;;
2546;SDS011;1283;47.982;7.834;2023-08-06T06:52:12;4.45;;;1.00;;
2546;SDS011;1283;47.982;7.834;2023-08-06T06:54:38;2.65;;;0.82;;
2546;SDS011;1283;47.982;7.834;2023-08-06T06:57:05;3.47;;;0.63;;
2546;SDS011;1283;47.982;7.834;2023-08-06T06:59:31;5.22;;;0.77;;
2546;SDS011;1283;47.982;7.834;2023-08-06T07:01:58;5.43;;;0.95;;
2546;SDS011;1283;47.982;7.834;2023-08-06T07:04:25;3.70;;;0.60;;
2546;SDS011;1283;47.982;7.834;2023-08-06T07:06:52;1.95;;;0.60;;
2546;SDS011;1283;47.982;7.834;2023-08-06T07:09:19;1.85;;;0.88;;
2546;SDS011;1283;47.982;7.834;2023-08-06T07:11:45;3.95;;;0.60;;
2546;SDS011;1283;47.982;7.834;2023-08-06T07:14:12;2.65;;;0.70;;
2546;SDS011;1283;47.982;7.834;2023-08-06T07:16:39;1.10;;;0.60;;
2546;SDS011;1283;47.982;7.834;2023-08-06T07:19:05;2.42;;;0.55;;
2546;SDS011;1283;47.982;7.834;2023-08-06T07:21:33;0.90;;;0.60;;
2546;SDS011;1283;47.982;7.834;2023-08-06T07:24:00;1.42;;;0.50;;
2546;SDS011;1283;47.982;7.834;2023-08-06T07:26:26;4.03;;;1.92;;
2546;SDS011;1283;47.982;7.834;2023-08-06T07:28:53;1.08;;;0.60;;
2546;SDS011;1283;47.982;7.834;2023-08-06T07:31:19;1.75;;;0.63;;
2546;SDS011;1283;47.982;7.834;2023-08-06T07:33:45;0.60;;;0.40;;
2546;SDS011;1283;47.982;7.834;2023-08-06T07:36:13;0.70;;;0.40;;
2546;SDS011;1283;47.982;7.834;2023-08-06T07:38:41;0.98;;;0.82;;
2546;SDS011;1283;47.982;7.834;2023-08-06T07:41:08;4.60;;;0.65;;
2546;SDS011;1283;47.982;7.834;2023-08-06T07:43:34;0.80;;;0.40;;
2546;SDS011;1283;47.982;7.834;2023-08-06T07:46:01;0.98;;;0.50;;
2546;SDS011;1283;47.982;7.834;2023-08-06T07:48:28;0.73;;;0.30;;
2546;SDS011;1283;47.982;7.834;2023-08-06T07:50:55;0.40;;;0.40;;
2546;SDS011;1283;47.982;7.834;2023-08-06T07:53:21;2.55;;;0.43;;
2546;SDS011;1283;47.982;7.834;2023-08-06T07:55:51;0.68;;;0.30;;
2546;SDS011;1283;47.982;7.834;2023-08-06T07:58:18;2.58;;;0.40;;
2546;SDS011;1283;47.982;7.834;2023-08-06T08:00:45;0.82;;;0.30;;
2546;SDS011;1283;47.982;7.834;2023-08-06T08:03:11;0.40;;;0.25;;
2546;SDS011;1283;47.982;7.834;2023-08-06T08:05:39;0.50;;;0.32;;
2546;SDS011;1283;47.982;7.834;2023-08-06T08:08:05;0.30;;;0.30;;
2546;SDS011;1283;47.982;7.834;2023-08-06T08:10:32;0.82;;;0.30;;
2546;SDS011;1283;47.982;7.834;2023-08-06T08:13:01;0.73;;;0.30;;
2546;SDS011;1283;47.982;7.834;2023-08-06T08:15:28;1.10;;;0.30;;
2546;SDS011;1283;47.982;7.834;2023-08-06T08:17:54;1.85;;;0.30;;
2546;SDS011;1283;47.982;7.834;2023-08-06T08:20:21;0.63;;;0.30;;
2546;SDS011;1283;47.982;7.834;2023-08-06T08:22:48;1.67;;;0.45;;
2546;SDS011;1283;47.982;7.834;2023-08-06T08:25:15;1.00;;;0.47;;
2546;SDS011;1283;47.982;7.834;2023-08-06T08:27:42;0.63;;;0.30;;
2546;SDS011;1283;47.982;7.834;2023-08-06T08:30:10;3.83;;;0.30;;
2546;SDS011;1283;47.982;7.834;2023-08-06T08:32:36;0.20;;;0.20;;
2546;SDS011;1283;47.982;7.834;2023-08-06T08:35:03;0.70;;;0.30;;
2546;SDS011;1283;47.982;7.834;2023-08-06T08:37:30;0.25;;;0.20;;
2546;SDS011;1283;47.982;7.834;2023-08-06T08:39:56;0.98;;;0.50;;
2546;SDS011;1283;47.982;7.834;2023-08-06T08:42:23;0.60;;;0.40;;
2546;SDS011;1283;47.982;7.834;2023-08-06T08:44:49;5.35;;;1.77;;
2546;SDS011;1283;47.982;7.834;2023-08-06T08:47:17;0.80;;;0.40;;
2546;SDS011;1283;47.982;7.834;2023-08-06T08:49:44;1.58;;;0.43;;
2546;SDS011;1283;47.982;7.834;2023-08-06T08:52:10;0.47;;;0.40;;
2546;SDS011;1283;47.982;7.834;2023-08-06T08:54:37;2.03;;;0.40;;
2546;SDS011;1283;47.982;7.834;2023-08-06T08:57:04;0.40;;;0.30;;
2546;SDS011;1283;47.982;7.834;2023-08-06T08:59:32;0.30;;;0.30;;
2546;SDS011;1283;47.982;7.834;2023-08-06T09:02:00;0.55;;;0.50;;
2546;SDS011;1283;47.982;7.834;2023-08-06T09:04:28;0.85;;;0.50;;
2546;SDS011;1283;47.982;7.834;2023-08-06T09:06:56;1.10;;;0.40;;
2546;SDS011;1283;47.982;7.834;2023-08-06T09:09:25;0.30;;;0.30;;
2546;SDS011;1283;47.982;7.834;2023-08-06T09:11:52;0.60;;;0.40;;
2546;SDS011;1283;47.982;7.834;2023-08-06T09:14:21;0.57;;;0.40;;
2546;SDS011;1283;47.982;7.834;2023-08-06T09:16:48;0.20;;;0.20;;
2546;SDS011;1283;47.982;7.834;2023-08-06T09:19:14;0.63;;;0.30;;
2546;SDS011;1283;47.982;7.834;2023-08-06T09:21:43;0.35;;;0.20;;
2546;SDS011;1283;47.982;7.834;2023-08-06T09:24:13;1.98;;;0.68;;
2546;SDS011;1283;47.982;7.834;2023-08-06T09:26:41;0.57;;;0.30;;
2546;SDS011;1283;47.982;7.834;2023-08-06T09:29:08;0.85;;;0.70;;
2546;SDS011;1283;47.982;7.834;2023-08-06T09:31:40;2.15;;;0.30;;
2546;SDS011;1283;47.982;7.834;2023-08-06T09:34:10;0.30;;;0.30;;
2546;SDS011;1283;47.982;7.834;2023-08-06T09:39:20;0.55;;;0.30;;
2546;SDS011;1283;47.982;7.834;2023-08-06T09:41:47;0.88;;;0.47;;
2546;SDS011;1283;47.982;7.834;2023-08-06T09:44:17;0.63;;;0.40;;
2546;SDS011;1283;47.982;7.834;2023-08-06T09:46:47;0.38;;;0.22;;
2546;SDS011;1283;47.982;7.834;2023-08-06T09:49:15;1.55;;;0.30;;
2546;SDS011;1283;47.982;7.834;2023-08-06T09:51:41;1.05;;;0.40;;
2546;SDS011;1283;47.982;7.834;2023-08-06T09:54:11;0.73;;;0.30;;
2546;SDS011;1283;47.982;7.834;2023-08-06T09:56:38;0.45;;;0.38;;
2546;SDS011;1283;47.982;7.834;2023-08-06T09:59:05;0.77;;;0.55;;
2546;SDS011;1283;47.982;7.834;2023-08-06T10:01:32;1.17;;;0.30;;
2546;SDS011;1283;47.982;7.834;2023-08-06T10:03:59;0.20;;;0.20;;
2546;SDS011;1283;47.982;7.834;2023-08-06T10:06:27;1.10;;;0.25;;
2546;SDS011;1283;47.982;7.834;2023-08-06T10:08:54;0.75;;;0.40;;
2546;SDS011;1283;47.982;7.834;2023-08-06T10:11:23;0.40;;;0.38;;
2546;SDS011;1283;47.982;7.834;2023-08-06T10:13:52;0.40;;;0.20;;
2546;SDS011;1283;47.982;7.834;2023-08-06T10:16:21;3.13;;;0.30;;
2546;SDS011;1283;47.982;7.834;2023-08-06T10:18:48;1.13;;;0.40;;
2546;SDS011;1283;47.982;7.834;2023-08-06T10:21:15;0.30;;;0.30;;
2546;SDS011;1283;47.982;7.834;2023-08-06T10:23:42;1.08;;;0.32;;
2546;SDS011;1283;47.982;7.834;2023-08-06T10:26:08;2.10;;;0.90;;
2546;SDS011;1283;47.982;7.834;2023-08-06T10:28:37;4.13;;;0.40;;
2546;SDS011;1283;47.982;7.834;2023-08-06T10:31:04;0.65;;;0.60;;
2546;SDS011;1283;47.982;7.834;2023-08-06T10:33:40;0.63;;;0.40;;
2546;SDS011;1283;47.982;7.834;2023-08-06T10:36:08;4.70;;;0.70;;
2546;SDS011;1283;47.982;7.834;2023-08-06T10:38:36;1.42;;;0.47;;
2546;SDS011;1283;47.982;7.834;2023-08-06T10:41:14;1.13;;;0.40;;
2546;SDS011;1283;47.982;7.834;2023-08-06T10:43:43;0.95;;;0.40;;
2546;SDS011;1283;47.982;7.834;2023-08-06T10:46:10;0.82;;;0.35;;
2546;SDS011;1283;47.982;7.834;2023-08-06T10:48:38;1.70;;;0.38;;
2546;SDS011;1283;47.982;7.834;2023-08-06T10:51:06;2.45;;;0.30;;
2546;SDS011;1283;47.982;7.834;2023-08-06T10:53:33;1.83;;;0.40;;
2546;SDS011;1283;47.982;7.834;2023-08-06T10:56:00;0.43;;;0.38;;
2546;SDS011;1283;47.982;7.834;2023-08-06T10:58:30;2.25;;;0.30;;
2546;SDS011;1283;47.982;7.834;2023-08-06T11:00:59;2.17;;;0.60;;
2546;SDS011;1283;47.982;7.834;2023-08-06T11:03:26;0.85;;;0.50;;
2546;SDS011;1283;47.982;7.834;2023-08-06T11:05:53;0.90;;;0.40;;
2546;SDS011;1283;47.982;7.834;2023-08-06T11:08:23;0.93;;;0.43;;
2546;SDS011;1283;47.982;7.834;2023-08-06T11:10:49;1.63;;;0.40;;
2546;SDS011;1283;47.982;7.834;2023-08-06T11:13:16;1.75;;;0.45;;
2546;SDS011;1283;47.982;7.834;2023-08-06T11:15:42;3.05;;;0.30;;
2546;SDS011;1283;47.982;7.834;2023-08-06T11:18:10;0.50;;;0.40;;
2546;SDS011;1283;47.982;7.834;2023-08-06T11:20:37;0.65;;;0.45;;
2546;SDS011;1283;47.982;7.834;2023-08-06T11:23:05;2.42;;;0.40;;
2546;SDS011;1283;47.982;7.834;2023-08-06T11:25:35;0.60;;;0.47;;
2546;SDS011;1283;47.982;7.834;2023-08-06T11:28:02;0.95;;;0.45;;
2546;SDS011;1283;47.982;7.834;2023-08-06T11:30:29;0.93;;;0.57;;
2546;SDS011;1283;47.982;7.834;2023-08-06T11:32:56;3.72;;;0.68;;
2546;SDS011;1283;47.982;7.834;2023-08-06T11:35:24;0.50;;;0.40;;
2546;SDS011;1283;47.982;7.834;2023-08-06T11:37:50;1.60;;;0.40;;
2546;SDS011;1283;47.982;7.834;2023-08-06T11:40:17;1.48;;;0.40;;
2546;SDS011;1283;47.982;7.834;2023-08-06T11:42:45;1.90;;;0.52;;
2546;SDS011;1283;47.982;7.834;2023-08-06T11:45:12;2.30;;;0.35;;
2546;SDS011;1283;47.982;7.834;2023-08-06T11:47:39;1.45;;;0.70;;
2546;SDS011;1283;47.982;7.834;2023-08-06T11:50:06;0.60;;;0.30;;
2546;SDS011;1283;47.982;7.834;2023-08-06T11:52:34;1.10;;;0.30;;
2546;SDS011;1283;47.982;7.834;2023-08-06T11:55:06;0.75;;;0.30;;
2546;SDS011;1283;47.982;7.834;2023-08-06T11:57:35;0.35;;;0.28;;
2546;SDS011;1283;47.982;7.834;2023-08-06T12:00:03;0.88;;;0.40;;
2546;SDS011;1283;47.982;7.834;2023-08-06T12:02:31;0.68;;;0.30;;
2546;SDS011;1283;47.982;7.834;2023-08-06T12:05:02;1.88;;;0.50;;
2546;SDS011;1283;47.982;7.834;2023-08-06T12:07:30;1.30;;;0.50;;
2546;SDS011;1283;47.982;7.834;2023-08-06T12:09:59;1.05;;;0.55;;
2546;SDS011;1283;47.982;7.834;2023-08-06T12:12:25;2.30;;;0.70;;
2546;SDS011;1283;47.982;7.834;2023-08-06T12:14:52;1.48;;;0.70;;
2546;SDS011;1283;47.982;7.834;2023-08-06T12:17:19;1.15;;;0.60;;
2546;SDS011;1283;47.982;7.834;2023-08-06T12:19:45;0.47;;;0.40;;
2546;SDS011;1283;47.982;7.834;2023-08-06T12:22:13;0.82;;;0.40;;
2546;SDS011;1283;47.982;7.834;2023-08-06T12:24:40;1.45;;;0.40;;
2546;SDS011;1283;47.982;7.834;2023-08-06T12:27:08;4.38;;;0.32;;
2546;SDS011;1283;47.982;7.834;2023-08-06T12:29:34;0.35;;;0.30;;
2546;SDS011;1283;47.982;7.834;2023-08-06T12:32:01;0.38;;;0.30;;
2546;SDS011;1283;47.982;7.834;2023-08-06T12:34:29;1.05;;;0.50;;
2546;SDS011;1283;47.982;7.834;2023-08-06T12:36:55;2.28;;;0.47;;
2546;SDS011;1283;47.982;7.834;2023-08-06T12:39:22;0.57;;;0.40;;
2546;SDS011;1283;47.982;7.834;2023-08-06T12:41:48;0.68;;;0.50;;
2546;SDS011;1283;47.982;7.834;2023-08-06T12:44:17;0.65;;;0.32;;
2546;SDS011;1283;47.982;7.834;2023-08-06T12:46:45;0.82;;;0.40;;
2546;SDS011;1283;47.982;7.834;2023-08-06T12:49:12;3.33;;;0.80;;
2546;SDS011;1283;47.982;7.834;2023-08-06T12:51:38;6.85;;;0.80;;
2546;SDS011;1283;47.982;7.834;2023-08-06T12:54:04;2.00;;;0.80;;
2546;SDS011;1283;47.982;7.834;2023-08-06T12:56:31;1.23;;;0.60;;
2546;SDS011;1283;47.982;7.834;2023-08-06T12:58:57;1.50;;;0.80;;
2546;SDS011;1283;47.982;7.834;2023-08-06T13:01:25;0.50;;;0.40;;
2546;SDS011;1283;47.982;7.834;2023-08-06T13:03:52;1.75;;;0.80;;
2546;SDS011;1283;47.982;7.834;2023-08-06T13:06:18;1.73;;;0.45;;
2546;SDS011;1283;47.982;7.834;2023-08-06T13:08:45;2.75;;;0.63;;
2546;SDS011;1283;47.982;7.834;2023-08-06T13:11:11;1.13;;;0.40;;
2546;SDS011;1283;47.982;7.834;2023-08-06T13:13:38;1.05;;;0.50;;
2546;SDS011;1283;47.982;7.834;2023-08-06T13:16:04;0.75;;;0.50;;
2546;SDS011;1283;47.982;7.834;2023-08-06T13:18:32;1.48;;;0.47;;
2546;SDS011;1283;47.982;7.834;2023-08-06T13:20:58;0.70;;;0.40;;
2546;SDS011;1283;47.982;7.834;2023-08-06T13:23:25;6.82;;;0.70;;
2546;SDS011;1283;47.982;7.834;2023-08-06T13:25:51;1.30;;;0.65;;
2546;SDS011;1283;47.982;7.834;2023-08-06T13:28:18;2.08;;;0.68;;
2546;SDS011;1283;47.982;7.834;2023-08-06T13:30:44;0.47;;;0.40;;
2546;SDS011;1283;47.982;7.834;2023-08-06T13:33:11;1.17;;;0.40;;
2546;SDS011;1283;47.982;7.834;2023-08-06T13:35:39;0.80;;;0.40;;
2546;SDS011;1283;47.982;7.834;2023-08-06T13:38:06;1.05;;;0.60;;
2546;SDS011;1283;47.982;7.834;2023-08-06T13:40:32;2.22;;;0.50;;
2546;SDS011;1283;47.982;7.834;2023-08-06T13:42:59;1.27;;;0.68;;
2546;SDS011;1283;47.982;7.834;2023-08-06T13:45:26;0.85;;;0.55;;
2546;SDS011;1283;47.982;7.834;2023-08-06T13:47:53;1.10;;;0.60;;
2546;SDS011;1283;47.982;7.834;2023-08-06T13:50:20;1.75;;;0.70;;
2546;SDS011;1283;47.982;7.834;2023-08-06T13:52:52;1.27;;;0.50;;
2546;SDS011;1283;47.982;7.834;2023-08-06T13:55:20;0.93;;;0.60;;
2546;SDS011;1283;47.982;7.834;2023-08-06T13:57:47;3.13;;;0.98;;
2546;SDS011;1283;47.982;7.834;2023-08-06T14:00:13;1.45;;;0.70;;
2546;SDS011;1283;47.982;7.834;2023-08-06T14:02:40;1.90;;;0.93;;
2546;SDS011;1283;47.982;7.834;2023-08-06T14:05:08;1.83;;;0.80;;
2546;SDS011;1283;47.982;7.834;2023-08-06T14:07:35;2.00;;;0.63;;
2546;SDS011;1283;47.982;7.834;2023-08-06T14:10:03;1.33;;;0.65;;
2546;SDS011;1283;47.982;7.834;2023-08-06T14:12:30;1.73;;;0.93;;
2546;SDS011;1283;47.982;7.834;2023-08-06T14:14:57;0.65;;;0.50;;
2546;SDS011;1283;47.982;7.834;2023-08-06T14:17:24;2.45;;;0.90;;
2546;SDS011;1283;47.982;7.834;2023-08-06T14:19:50;2.60;;;1.08;;
2546;SDS011;1283;47.982;7.834;2023-08-06T14:22:17;1.25;;;0.55;;
2546;SDS011;1283;47.982;7.834;2023-08-06T14:24:43;3.97;;;0.70;;
2546;SDS011;1283;47.982;7.834;2023-08-06T14:27:13;1.20;;;0.70;;
2546;SDS011;1283;47.982;7.834;2023-08-06T14:29:39;2.25;;;0.80;;
2546;SDS011;1283;47.982;7.834;2023-08-06T14:32:06;1.63;;;1.42;;
2546;SDS011;1283;47.982;7.834;2023-08-06T14:34:33;1.40;;;0.60;;
2546;SDS011;1283;47.982;7.834;2023-08-06T14:37:00;1.05;;;0.70;;
2546;SDS011;1283;47.982;7.834;2023-08-06T14:39:26;1.75;;;0.63;;
2546;SDS011;1283;47.982;7.834;2023-08-06T14:41:53;1.30;;;0.70;;
2546;SDS011;1283;47.982;7.834;2023-08-06T14:44:21;1.50;;;0.73;;
2546;SDS011;1283;47.982;7.834;2023-08-06T14:46:47;1.90;;;0.73;;
2546;SDS011;1283;47.982;7.834;2023-08-06T14:49:14;1.42;;;0.70;;
2546;SDS011;1283;47.982;7.834;2023-08-06T14:51:40;4.30;;;1.52;;
2546;SDS011;1283;47.982;7.834;2023-08-06T14:54:06;2.55;;;0.80;;
2546;SDS011;1283;47.982;7.834;2023-08-06T14:56:33;0.68;;;0.50;;
2546;SDS011;1283;47.982;7.834;2023-08-06T14:58:59;1.38;;;0.55;;
2546;SDS011;1283;47.982;7.834;2023-08-06T15:01:27;2.17;;;0.63;;
2546;SDS011;1283;47.982;7.834;2023-08-06T15:03:54;1.55;;;0.65;;
2546;SDS011;1283;47.982;7.834;2023-08-06T15:06:20;1.35;;;0.80;;
2546;SDS011;1283;47.982;7.834;2023-08-06T15:08:47;2.58;;;0.80;;
2546;SDS011;1283;47.982;7.834;2023-08-06T15:11:14;1.17;;;0.93;;
2546;SDS011;1283;47.982;7.834;2023-08-06T15:13:40;0.98;;;0.70;;
2546;SDS011;1283;47.982;7.834;2023-08-06T15:16:07;2.70;;;0.80;;